Time;durP1;ratioP1;P1;durP2;ratioP2;P2;SDS_P1;SDS_P2;PMS_P1;PMS_P2;Temp;Humidity;BMP_temperature;BMP_pressure;BME280_temperature;BME280_humidity;BME280_pressure;Samples;Min_cycle;Max_cycle;Signal;HPM_P1;HPM_P2
2022/08/13 00:01:43;;;;;;;4.37;4.07;;;22.60;1.00;;;;;;4955660;28;20465;-78
2022/08/13 00:04:11;;;;;;;4.10;3.77;;;22.50;1.00;;;;;;4956110;28;21280;-78
2022/08/13 00:07:05;;;;;;;4.70;4.27;;;22.50;1.00;;;;;;4963023;28;20452;-81
2022/08/13 00:09:32;;;;;;;8.63;4.30;;;22.50;1.00;;;;;;4955148;28;20544;-78
2022/08/13 00:14:50;;;;;;;5.90;4.07;;;22.60;1.00;;;;;;4950587;28;20461;-78
2022/08/13 00:17:26;;;;;;;5.20;4.30;;;22.60;1.00;;;;;;4949733;28;20510;-81
2022/08/13 00:19:53;;;;;;;4.47;4.07;;;22.70;1.00;;;;;;4938046;28;20450;-81
2022/08/13 00:22:23;;;;;;;5.93;4.33;;;22.70;1.00;;;;;;4935218;28;20495;-81
2022/08/13 00:24:50;;;;;;;4.10;3.53;;;22.70;1.00;;;;;;4941306;28;20469;-81
2022/08/13 00:30:05;;;;;;;9.70;3.97;;;22.70;1.00;;;;;;4935745;28;20438;-78
2022/08/13 00:32:33;;;;;;;5.10;4.43;;;22.60;1.00;;;;;;4939979;28;20473;-79
2022/08/13 00:35:04;;;;;;;6.00;3.97;;;22.50;1.00;;;;;;4934599;28;20466;-78
2022/08/13 00:37:33;;;;;;;6.97;4.43;;;22.50;1.00;;;;;;4935258;28;20476;-79
2022/08/13 00:40:00;;;;;;;6.07;5.40;;;22.40;1.00;;;;;;4938129;28;20608;-80
2022/08/13 00:42:28;;;;;;;4.80;4.13;;;22.30;1.00;;;;;;4933946;28;20469;-78
2022/08/13 00:44:54;;;;;;;6.27;4.83;;;22.20;1.00;;;;;;4944606;28;20470;-82
2022/08/13 00:50:21;;;;;;;5.07;4.17;;;22.20;1.00;;;;;;4939165;28;20484;-78
2022/08/13 00:52:49;;;;;;;4.13;3.83;;;22.10;1.00;;;;;;4939001;28;20474;-78
2022/08/13 00:55:25;;;;;;;6.77;5.70;;;22.10;1.00;;;;;;4938211;28;20477;-80
2022/08/13 00:57:52;;;;;;;5.10;4.00;;;22.10;1.00;;;;;;4936641;28;20457;-79
2022/08/13 01:00:25;;;;;;;4.73;4.33;;;22.00;1.00;;;;;;4939804;28;20517;-77
2022/08/13 01:02:54;;;;;;;4.40;4.00;;;22.00;1.00;;;;;;4937845;28;20444;-80
2022/08/13 01:05:24;;;;;;;4.87;4.47;;;21.90;1.00;;;;;;4934969;28;20577;-78
2022/08/13 01:07:51;;;;;;;5.13;4.60;;;21.90;1.00;;;;;;4926875;28;20834;-79
2022/08/13 01:10:22;;;;;;;6.17;4.97;;;21.80;1.00;;;;;;4924113;28;20513;-80
2022/08/13 01:12:52;;;;;;;5.03;4.63;;;21.80;1.00;;;;;;4934028;28;20436;-82
2022/08/13 01:15:27;;;;;;;6.67;5.57;;;21.70;1.00;;;;;;4938795;28;20429;-81
2022/08/13 01:17:57;;;;;;;5.10;4.70;;;21.80;1.00;;;;;;4937223;28;20469;-82
2022/08/13 01:20:28;;;;;;;5.10;4.60;;;21.70;1.00;;;;;;4918828;28;21001;-80
2022/08/13 01:23:01;;;;;;;5.07;4.67;;;21.70;1.00;;;;;;4941524;28;20456;-81
2022/08/13 01:25:31;;;;;;;4.77;4.40;;;21.70;1.00;;;;;;4938066;28;20489;-81
2022/08/13 01:28:04;;;;;;;6.20;4.50;;;21.60;1.00;;;;;;4933725;28;20440;-82
2022/08/13 01:30:34;;;;;;;4.40;4.00;;;21.60;1.00;;;;;;4937460;28;20477;-78
2022/08/13 01:33:08;;;;;;;6.30;5.27;;;21.50;1.00;;;;;;4937604;28;20503;-81
2022/08/13 01:35:35;;;;;;;5.53;4.47;;;21.50;1.00;;;;;;4935250;28;20436;-82
2022/08/13 01:38:05;;;;;;;5.40;4.90;;;21.50;1.00;;;;;;4934736;28;21198;-82
2022/08/13 01:40:33;;;;;;;5.00;4.47;;;21.50;1.00;;;;;;4937156;28;20477;-79
2022/08/13 01:43:05;;;;;;;4.80;4.40;;;21.50;1.00;;;;;;4939868;28;20468;-81
2022/08/13 01:45:32;;;;;;;5.20;4.80;;;21.50;1.00;;;;;;4936705;28;20470;-82
2022/08/13 01:50:50;;;;;;;4.83;4.33;;;21.50;1.00;;;;;;4936326;28;20445;-79
2022/08/13 01:53:23;;;;;;;7.27;4.67;;;21.40;1.00;;;;;;4941012;28;20536;-82
2022/08/13 01:55:54;;;;;;;4.87;4.40;;;21.40;1.00;;;;;;4940903;28;21264;-79
2022/08/13 01:58:25;;;;;;;5.50;5.00;;;21.40;1.00;;;;;;4936830;28;20557;-82
2022/08/13 02:00:57;;;;;;;6.27;4.80;;;21.40;1.00;;;;;;4939190;28;20422;-81
2022/08/13 02:03:30;;;;;;;6.43;4.67;;;21.40;1.00;;;;;;4938530;28;20434;-82
2022/08/13 02:06:02;;;;;;;4.90;4.53;;;21.40;1.00;;;;;;4938299;28;20972;-82
2022/08/13 02:08:33;;;;;;;7.80;5.17;;;21.30;1.00;;;;;;4939159;28;21028;-82
2022/08/13 02:11:03;;;;;;;5.40;4.70;;;21.30;1.00;;;;;;4936463;28;21264;-81
2022/08/13 02:13:30;;;;;;;4.73;4.43;;;21.30;1.00;;;;;;4939020;28;20550;-81
2022/08/13 02:15:58;;;;;;;5.20;4.70;;;21.30;1.00;;;;;;4934678;28;20497;-82
2022/08/13 02:18:28;;;;;;;6.13;4.73;;;21.40;1.00;;;;;;4936594;28;21159;-82
2022/08/13 02:21:01;;;;;;;5.00;4.50;;;21.30;1.00;;;;;;4943272;28;20862;-79
2022/08/13 02:23:34;;;;;;;5.70;4.73;;;21.30;1.00;;;;;;4944602;28;20558;-82
2022/08/13 02:26:05;;;;;;;5.47;5.00;;;21.20;1.00;;;;;;4937894;28;21251;-82
2022/08/13 02:28:39;;;;;;;5.80;5.30;;;21.20;1.00;;;;;;4941915;28;20494;-79
2022/08/13 02:31:12;;;;;;;5.43;4.83;;;21.20;1.00;;;;;;4937126;28;20469;-80
2022/08/13 02:33:40;;;;;;;6.47;5.80;;;21.20;1.00;;;;;;4935862;28;20517;-82
2022/08/13 02:36:10;;;;;;;6.77;5.90;;;21.10;1.00;;;;;;4937750;28;20543;-82
2022/08/13 02:38:40;;;;;;;4.83;4.33;;;21.10;1.00;;;;;;4942495;28;20492;-79
2022/08/13 02:43:53;;;;;;;5.63;5.13;;;21.10;1.00;;;;;;4938711;28;20440;-78
2022/08/13 02:46:21;;;;;;;5.60;5.10;;;21.10;1.00;;;;;;4939234;28;20454;-82
2022/08/13 02:48:53;;;;;;;14.03;5.80;;;21.00;1.00;;;;;;4930616;28;20438;-82
2022/08/13 02:51:20;;;;;;;5.60;5.10;;;21.00;1.00;;;;;;4938242;28;20565;-78
2022/08/13 02:53:53;;;;;;;6.00;5.50;;;21.00;1.00;;;;;;4938655;28;20453;-79
2022/08/13 02:56:20;;;;;;;6.17;5.27;;;20.90;1.00;;;;;;4946100;28;20503;-79
2022/08/13 02:58:48;;;;;;;5.33;4.83;;;20.90;1.00;;;;;;4932980;28;20468;-82
2022/08/13 03:01:16;;;;;;;6.60;5.87;;;20.90;1.00;;;;;;4946627;28;20473;-79
2022/08/13 03:03:43;;;;;;;7.37;5.30;;;20.80;1.00;;;;;;4942115;28;20915;-78
2022/08/13 03:06:13;;;;;;;6.20;5.27;;;20.80;1.00;;;;;;4939065;28;20486;-79
2022/08/13 03:08:40;;;;;;;9.80;6.20;;;20.80;1.00;;;;;;4943537;28;20909;-84
2022/08/13 03:11:24;;;;;;;6.03;5.40;;;20.80;1.00;;;;;;4938867;28;20480;-82
2022/08/13 03:13:56;;;;;;;5.97;5.33;;;20.80;1.00;;;;;;4924933;28;20412;-82
2022/08/13 03:16:24;;;;;;;7.20;5.43;;;20.80;1.00;;;;;;4948672;28;20519;-78
2022/08/13 03:18:53;;;;;;;5.30;4.90;;;20.80;1.00;;;;;;4965994;28;20953;-78
2022/08/13 03:21:25;;;;;;;5.93;5.03;;;20.80;1.00;;;;;;4959081;28;20425;-79
2022/08/13 03:23:55;;;;;;;6.43;5.77;;;20.80;1.00;;;;;;4962412;28;20545;-84
2022/08/13 03:26:27;;;;;;;6.33;5.73;;;20.80;1.00;;;;;;4955949;28;20462;-81
2022/08/13 03:28:54;;;;;;;5.33;4.93;;;20.90;1.00;;;;;;4957824;28;21011;-78
2022/08/13 03:31:23;;;;;;;6.57;5.87;;;20.90;1.00;;;;;;4960123;28;20479;-79
2022/08/13 03:33:50;;;;;;;6.90;6.30;;;20.90;1.00;;;;;;4949735;28;26209;-79
2022/08/13 03:36:18;;;;;;;5.07;4.60;;;21.00;1.00;;;;;;4960470;28;21175;-79
2022/08/13 03:38:46;;;;;;;6.60;6.10;;;21.00;1.00;;;;;;4958692;28;20461;-84
2022/08/13 03:41:16;;;;;;;7.50;6.00;;;20.90;1.00;;;;;;4961932;28;20509;-82
2022/08/13 03:43:47;;;;;;;5.83;5.33;;;21.00;1.00;;;;;;4949821;28;20457;-79
2022/08/13 03:46:17;;;;;;;6.67;5.57;;;20.90;1.00;;;;;;4944084;28;20471;-78
2022/08/13 03:48:45;;;;;;;6.70;6.00;;;20.90;1.00;;;;;;4949810;28;20501;-79
2022/08/13 03:51:15;;;;;;;7.43;6.83;;;20.90;1.00;;;;;;4964837;28;20432;-82
2022/08/13 03:53:42;;;;;;;6.53;5.80;;;20.80;1.00;;;;;;4955864;28;20456;-78
2022/08/13 03:56:15;;;;;;;5.87;5.43;;;20.80;1.00;;;;;;4952225;28;20551;-82
2022/08/13 03:58:44;;;;;;;6.47;5.90;;;20.80;1.00;;;;;;4970200;28;20915;-81
2022/08/13 04:01:16;;;;;;;6.00;5.30;;;20.80;1.00;;;;;;4938710;28;20448;-81
2022/08/13 04:03:43;;;;;;;6.17;5.53;;;20.80;1.00;;;;;;4943068;28;20945;-81
2022/08/13 04:06:15;;;;;;;6.67;6.07;;;20.90;1.00;;;;;;4955194;28;20433;-79
2022/08/13 04:08:43;;;;;;;9.37;8.67;;;20.90;1.00;;;;;;4950728;28;20464;-82
2022/08/13 04:11:15;;;;;;;5.80;5.37;;;20.90;1.00;;;;;;4955218;28;20477;-82
2022/08/13 04:13:43;;;;;;;10.60;6.60;;;21.00;1.00;;;;;;4958130;28;20490;-79
2022/08/13 04:16:18;;;;;;;5.97;5.47;;;21.00;1.00;;;;;;4943074;28;20430;-83
2022/08/13 04:18:46;;;;;;;5.53;5.13;;;20.90;1.00;;;;;;4945053;28;20432;-81
2022/08/13 04:21:19;;;;;;;6.80;6.27;;;21.00;1.00;;;;;;4949615;28;20481;-78
2022/08/13 04:23:46;;;;;;;5.50;5.10;;;21.00;1.00;;;;;;4941784;28;24453;-79
2022/08/13 04:26:16;;;;;;;6.13;5.60;;;21.10;1.00;;;;;;4940355;28;20552;-79
2022/08/13 04:28:45;;;;;;;6.73;6.00;;;21.10;1.00;;;;;;4939851;28;20496;-78
2022/08/13 04:31:15;;;;;;;18.77;9.43;;;21.10;1.00;;;;;;4944584;28;20454;-77
2022/08/13 04:33:42;;;;;;;6.30;5.80;;;21.10;1.00;;;;;;4934778;28;20469;-78
2022/08/13 04:36:13;;;;;;;12.03;6.60;;;21.10;1.00;;;;;;4931771;28;20457;-81
2022/08/13 04:38:40;;;;;;;11.23;6.50;;;21.10;1.00;;;;;;4937672;28;20462;-81
2022/08/13 04:41:07;;;;;;;8.70;5.30;;;21.10;1.00;;;;;;4940742;28;20497;-78
2022/08/13 04:43:35;;;;;;;7.73;6.10;;;21.10;1.00;;;;;;4941755;28;20473;-80
2022/08/13 04:46:02;;;;;;;8.60;6.43;;;21.20;1.00;;;;;;4939224;28;20552;-80
2022/08/13 04:48:35;;;;;;;12.43;7.37;;;21.20;1.00;;;;;;4949154;28;20425;-81
2022/08/13 04:51:03;;;;;;;6.90;6.30;;;21.20;1.00;;;;;;4930259;28;20891;-80
2022/08/13 04:53:40;;;;;;;9.97;5.90;;;21.30;1.00;;;;;;4931496;28;20417;-78
2022/08/13 04:56:12;;;;;;;6.53;5.87;;;21.30;1.00;;;;;;4937857;28;20898;-81
2022/08/13 04:58:39;;;;;;;8.90;6.67;;;21.30;1.00;;;;;;4930130;28;20985;-81
2022/08/13 05:01:12;;;;;;;6.70;6.20;;;21.40;1.00;;;;;;4933385;28;20917;-79
2022/08/13 05:03:45;;;;;;;5.70;5.30;;;21.50;1.00;;;;;;4926833;28;20499;-79
2022/08/13 05:06:19;;;;;;;6.90;6.27;;;21.60;1.00;;;;;;4934766;28;20418;-78
2022/08/13 05:08:46;;;;;;;6.70;6.10;;;21.70;1.00;;;;;;4940349;28;20522;-79
2022/08/13 05:11:14;;;;;;;6.20;5.80;;;21.70;1.00;;;;;;4926093;28;20446;-79
2022/08/13 05:13:43;;;;;;;6.50;6.00;;;21.80;1.00;;;;;;4933860;28;20484;-79
2022/08/13 05:16:18;;;;;;;6.90;5.83;;;21.80;1.00;;;;;;4954978;28;20420;-78
2022/08/13 05:18:54;;;;;;;7.17;6.20;;;21.90;1.00;;;;;;4956229;28;20471;-82
2022/08/13 05:21:23;;;;;;;8.73;5.80;;;22.00;1.00;;;;;;4952994;28;20484;-77
2022/08/13 05:23:54;;;;;;;6.53;6.03;;;21.90;1.00;;;;;;4950062;28;20472;-79
2022/08/13 05:26:22;;;;;;;7.63;6.20;;;22.00;1.00;;;;;;4952013;28;20472;-79
2022/08/13 05:29:04;;;;;;;11.03;7.17;;;22.00;1.00;;;;;;4944385;28;20437;-79
2022/08/13 05:31:36;;;;;;;9.13;7.10;;;22.10;1.00;;;;;;4959113;28;20477;-79
2022/08/13 05:34:06;;;;;;;7.00;6.27;;;22.10;1.00;;;;;;4962816;28;20547;-79
2022/08/13 05:36:35;;;;;;;8.30;7.50;;;22.10;1.00;;;;;;4955830;28;20470;-78
2022/08/13 05:39:03;;;;;;;7.23;6.27;;;22.20;1.00;;;;;;4964968;28;20466;-79
2022/08/13 05:41:30;;;;;;;6.43;5.93;;;22.40;1.00;;;;;;4943473;28;20508;-79
2022/08/13 05:43:57;;;;;;;6.77;6.17;;;22.60;1.00;;;;;;4949248;28;20975;-76
2022/08/13 05:46:24;;;;;;;6.97;6.47;;;22.60;1.00;;;;;;4949005;28;20869;-78
2022/08/13 05:48:57;;;;;;;6.27;5.77;;;22.80;1.00;;;;;;4935530;28;20561;-78
2022/08/13 05:51:28;;;;;;;6.93;6.37;;;23.00;1.00;;;;;;4956667;28;20993;-78
2022/08/13 05:53:59;;;;;;;6.50;5.97;;;23.20;1.00;;;;;;4928253;28;20468;-78
2022/08/13 05:56:26;;;;;;;6.47;5.90;;;23.30;1.00;;;;;;4960672;28;20503;-78
2022/08/13 05:58:56;;;;;;;5.90;5.40;;;23.40;1.00;;;;;;4950811;28;20623;-78
2022/08/13 06:04:19;;;;;;;6.00;5.50;;;23.50;1.00;;;;;;4950004;28;20458;-78
2022/08/13 06:06:50;;;;;;;6.73;6.07;;;23.60;1.00;;;;;;4961177;28;20471;-77
2022/08/13 06:09:19;;;;;;;8.67;6.30;;;23.70;1.00;;;;;;4951013;28;20508;-76
2022/08/13 06:11:51;;;;;;;9.53;6.60;;;23.70;1.00;;;;;;4961524;28;20488;-77
2022/08/13 06:14:21;;;;;;;6.40;5.80;;;23.80;1.00;;;;;;4945925;28;20469;-78
2022/08/13 06:16:53;;;;;;;6.40;5.80;;;23.90;1.00;;;;;;4942467;28;20573;-78
2022/08/13 06:19:22;;;;;;;7.73;6.00;;;24.00;1.00;;;;;;4939610;28;20472;-78
2022/08/13 06:22:01;;;;;;;7.00;6.50;;;24.00;1.00;;;;;;4940407;28;20446;-78
2022/08/13 06:24:32;;;;;;;6.53;6.03;;;24.20;1.00;;;;;;4944091;28;20413;-77
2022/08/13 06:27:11;;;;;;;5.80;5.40;;;24.30;1.00;;;;;;4941407;28;20484;-78
2022/08/13 06:29:41;;;;;;;10.10;6.80;;;24.30;1.00;;;;;;4935001;28;20432;-77
2022/08/13 06:32:13;;;;;;;7.50;6.80;;;24.40;1.00;;;;;;4939895;28;21003;-78
2022/08/13 06:34:41;;;;;;;6.40;5.67;;;24.30;1.00;;;;;;4922064;28;20450;-78
2022/08/13 06:37:14;;;;;;;8.13;7.43;;;24.50;1.00;;;;;;4946622;28;20461;-78
2022/08/13 06:39:42;;;;;;;6.40;5.60;;;24.40;1.00;;;;;;4943164;28;20469;-77
2022/08/13 06:42:10;;;;;;;8.23;6.57;;;24.60;1.00;;;;;;4939375;28;20544;-78
2022/08/13 06:44:42;;;;;;;6.03;5.53;;;24.70;1.00;;;;;;4928227;28;20519;-78
2022/08/13 06:47:09;;;;;;;7.20;6.50;;;24.90;1.00;;;;;;4937231;28;20529;-79
2022/08/13 06:49:37;;;;;;;6.83;6.00;;;24.90;1.00;;;;;;4937863;28;20985;-78
2022/08/13 06:52:05;;;;;;;7.00;6.27;;;25.00;1.00;;;;;;4934069;28;20539;-78
2022/08/13 06:54:34;;;;;;;6.90;6.30;;;25.00;1.00;;;;;;4928958;28;20434;-78
2022/08/13 06:57:01;;;;;;;7.20;6.13;;;25.10;1.00;;;;;;4942369;28;20468;-78
2022/08/13 06:59:33;;;;;;;7.53;6.17;;;25.10;1.00;;;;;;4932466;28;20960;-79
2022/08/13 07:02:02;;;;;;;6.40;5.90;;;25.20;1.00;;;;;;4932937;28;20556;-78
2022/08/13 07:04:29;;;;;;;9.10;6.90;;;25.30;1.00;;;;;;4931796;28;20473;-78
2022/08/13 07:06:57;;;;;;;7.20;6.53;;;25.40;1.00;;;;;;4933143;28;20556;-77
2022/08/13 07:09:25;;;;;;;7.13;6.53;;;25.60;1.00;;;;;;4933188;28;20429;-78
2022/08/13 07:11:56;;;;;;;11.10;6.60;;;25.80;1.00;;;;;;4934817;28;20567;-78
2022/08/13 07:14:23;;;;;;;7.50;6.90;;;25.80;1.00;;;;;;4935685;28;20467;-78
2022/08/13 07:16:50;;;;;;;6.47;5.87;;;25.80;1.00;;;;;;4940091;28;20470;-78
2022/08/13 07:19:17;;;;;;;6.53;6.03;;;25.80;1.00;;;;;;4930297;28;20470;-79
2022/08/13 07:21:44;;;;;;;6.90;6.30;;;25.90;1.00;;;;;;4931290;28;20484;-79
2022/08/13 07:24:12;;;;;;;8.43;6.87;;;26.10;1.00;;;;;;4927211;28;20533;-79
2022/08/13 07:26:39;;;;;;;7.40;6.70;;;26.20;1.00;;;;;;4930308;28;20469;-79
2022/08/13 07:29:09;;;;;;;6.57;5.93;;;26.40;1.00;;;;;;4929656;28;20608;-78
2022/08/13 07:31:39;;;;;;;6.67;6.17;;;26.70;1.00;;;;;;4933476;28;20479;-77
2022/08/13 07:34:07;;;;;;;7.13;6.53;;;26.80;1.00;;;;;;4934682;28;20493;-79
2022/08/13 07:36:38;;;;;;;7.80;6.83;;;26.90;1.00;;;;;;4932652;28;21187;-79
2022/08/13 07:39:09;;;;;;;6.77;5.97;;;27.10;1.00;;;;;;4922913;28;20473;-79
2022/08/13 07:41:40;;;;;;;9.43;6.37;;;27.30;1.00;;;;;;4940831;28;20464;-79
2022/08/13 07:44:24;;;;;;;7.90;7.13;;;27.30;1.00;;;;;;4936517;28;20505;-79
2022/08/13 07:46:54;;;;;;;7.60;6.97;;;27.30;1.00;;;;;;4938725;28;20657;-79
2022/08/13 07:49:26;;;;;;;7.20;6.60;;;27.30;1.00;;;;;;4938178;28;20492;-78
2022/08/13 07:51:55;;;;;;;6.33;5.73;;;27.40;1.00;;;;;;4948946;28;20444;-78
2022/08/13 07:54:35;;;;;;;7.13;6.30;;;27.40;1.00;;;;;;4929443;28;20416;-78
2022/08/13 07:57:05;;;;;;;6.90;6.40;;;27.50;1.00;;;;;;4939189;28;20429;-78
2022/08/13 07:59:37;;;;;;;6.87;6.27;;;27.60;1.00;;;;;;4928151;28;20549;-78
2022/08/13 08:02:13;;;;;;;6.80;6.30;;;27.60;1.00;;;;;;4941576;28;20453;-78
2022/08/13 08:04:41;;;;;;;7.90;7.10;;;27.60;1.00;;;;;;4918886;28;20444;-78
2022/08/13 08:07:14;;;;;;;7.00;6.40;;;27.60;1.00;;;;;;4940756;28;20468;-79
2022/08/13 08:09:41;;;;;;;7.70;6.90;;;27.50;1.00;;;;;;4940292;28;20465;-78
2022/08/13 08:15:00;;;;;;;11.70;6.97;;;27.40;1.00;;;;;;4933844;28;20513;-78
2022/08/13 08:17:33;;;;;;;6.70;6.00;;;27.30;1.00;;;;;;4911705;28;20553;-78
2022/08/13 08:20:00;;;;;;;6.87;6.27;;;27.10;1.00;;;;;;4940944;28;20479;-78
2022/08/13 08:22:28;;;;;;;7.50;6.80;;;27.10;1.00;;;;;;4927597;28;20473;-78
2022/08/13 08:25:00;;;;;;;6.37;5.83;;;27.00;1.00;;;;;;4922637;28;20455;-80
2022/08/13 08:27:27;;;;;;;7.67;6.70;;;26.90;1.00;;;;;;4940644;28;20524;-78
2022/08/13 08:30:00;;;;;;;19.63;8.20;;;26.90;1.00;;;;;;4914751;28;20488;-77
2022/08/13 08:32:34;;;;;;;7.90;7.10;;;26.90;1.00;;;;;;4939785;28;20496;-79
2022/08/13 08:35:02;;;;;;;8.63;7.83;;;27.00;1.00;;;;;;4941660;28;20455;-78
2022/08/13 08:43:03;;;;;;;7.50;6.90;;;27.50;1.00;;;;;;4942174;28;21369;-78
2022/08/13 08:45:35;;;;;;;8.03;7.23;;;27.50;1.00;;;;;;4931763;28;20482;-80
2022/08/13 08:48:04;;;;;;;8.27;7.47;;;27.50;1.00;;;;;;4934758;28;20507;-78
2022/08/13 08:50:34;;;;;;;9.50;7.20;;;27.50;1.00;;;;;;4940113;28;20406;-79
2022/08/13 08:55:44;;;;;;;7.53;6.80;;;27.90;1.00;;;;;;4921681;28;21128;-78
2022/08/13 08:58:13;;;;;;;9.13;7.30;;;28.00;1.00;;;;;;4938890;28;20458;-78
2022/08/13 09:00:48;;;;;;;7.37;6.77;;;28.30;1.00;;;;;;4947665;28;21199;-80
2022/08/13 09:03:18;;;;;;;7.10;6.60;;;28.50;1.00;;;;;;4944625;28;20465;-77
2022/08/13 09:05:47;;;;;;;8.50;7.87;;;28.70;1.00;;;;;;4946652;28;20461;-76
2022/08/13 09:08:25;;;;;;;7.00;6.50;;;28.70;1.00;;;;;;4946266;28;20505;-78
2022/08/13 09:10:54;;;;;;;7.70;7.10;;;28.90;1.00;;;;;;4931424;28;20496;-81
2022/08/13 09:13:25;;;;;;;8.23;7.43;;;29.00;1.00;;;;;;4955231;28;20649;-78
2022/08/13 09:15:52;;;;;;;8.73;7.90;;;29.00;1.00;;;;;;4947990;28;20458;-78
2022/08/13 09:18:31;;;;;;;7.87;7.37;;;29.20;1.00;;;;;;4947559;28;20468;-77
2022/08/13 09:20:58;;;;;;;8.40;7.80;;;29.30;1.00;;;;;;4949771;28;20492;-78
2022/08/13 09:23:26;;;;;;;7.87;7.17;;;29.50;1.00;;;;;;4941942;28;20499;-78
2022/08/13 09:25:53;;;;;;;7.47;6.87;;;29.90;1.00;;;;;;4946485;28;21021;-78
2022/08/13 09:28:30;;;;;;;8.70;7.90;;;29.90;1.00;;;;;;4941506;28;20426;-77
2022/08/13 09:30:57;;;;;;;8.70;7.90;;;30.00;1.00;;;;;;4943782;28;20487;-81
2022/08/13 09:33:29;;;;;;;7.00;6.30;;;30.00;1.00;;;;;;4939924;28;20476;-78
2022/08/13 09:35:57;;;;;;;8.83;7.93;;;30.00;1.00;;;;;;4946321;28;20545;-80
2022/08/13 09:38:28;;;;;;;7.30;6.70;;;30.10;1.00;;;;;;4944124;28;20422;-81
2022/08/13 09:41:06;;;;;;;8.00;7.30;;;30.00;1.00;;;;;;4943460;28;21219;-77
2022/08/13 09:43:45;;;;;;;8.07;7.40;;;29.90;1.00;;;;;;4940236;28;20592;-78
2022/08/13 09:46:15;;;;;;;8.57;7.77;;;29.60;1.00;;;;;;4943459;28;20453;-79
2022/08/13 09:48:50;;;;;;;10.50;6.90;;;29.40;1.00;;;;;;4928454;28;20459;-81
2022/08/13 09:51:17;;;;;;;8.60;7.90;;;29.20;1.00;;;;;;4944793;28;20485;-81
2022/08/13 09:53:46;;;;;;;9.50;7.63;;;29.00;1.00;;;;;;4948708;28;20455;-81
2022/08/13 09:56:17;;;;;;;8.53;7.93;;;29.10;1.00;;;;;;4941253;28;20458;-80
2022/08/13 09:58:50;;;;;;;8.63;7.97;;;29.20;1.00;;;;;;4949365;28;20467;-77
2022/08/13 10:01:17;;;;;;;9.37;8.50;;;29.40;1.00;;;;;;4933756;28;20510;-80
2022/08/13 10:03:48;;;;;;;10.50;8.00;;;29.50;1.00;;;;;;4936980;28;20837;-80
2022/08/13 10:06:18;;;;;;;10.40;9.33;;;29.50;1.00;;;;;;4936751;28;20421;-80
2022/08/13 10:08:46;;;;;;;8.30;7.60;;;29.50;1.00;;;;;;4941178;28;20480;-79
2022/08/13 10:11:14;;;;;;;7.47;6.90;;;29.30;1.00;;;;;;4944141;28;20483;-79
2022/08/13 10:13:45;;;;;;;9.40;8.60;;;29.30;1.00;;;;;;4947716;28;20530;-80
2022/08/13 10:16:13;;;;;;;8.10;7.50;;;29.20;1.00;;;;;;4941889;28;20464;-80
2022/08/13 10:18:46;;;;;;;8.27;7.67;;;29.00;1.00;;;;;;4959813;28;20492;-77
2022/08/13 10:21:15;;;;;;;12.07;8.40;;;28.70;1.00;;;;;;4959177;28;21324;-78
2022/08/13 10:23:45;;;;;;;9.07;8.20;;;28.40;1.00;;;;;;4956122;28;20463;-78
2022/08/13 10:26:12;;;;;;;9.00;8.10;;;28.40;1.00;;;;;;4958603;28;20510;-80
2022/08/13 10:28:43;;;;;;;10.50;7.00;;;28.30;1.00;;;;;;4942652;28;20464;-79
2022/08/13 10:31:10;;;;;;;8.50;7.77;;;28.30;1.00;;;;;;4958593;28;20452;-80
2022/08/13 10:33:38;;;;;;;7.40;6.90;;;28.30;1.00;;;;;;4965358;28;20476;-77
2022/08/13 10:36:11;;;;;;;11.10;8.20;;;28.30;1.00;;;;;;4965148;28;21349;-78
2022/08/13 10:38:43;;;;;;;8.03;7.43;;;28.50;1.00;;;;;;4968290;28;20933;-81
2022/08/13 10:41:10;;;;;;;6.40;5.83;;;28.50;1.00;;;;;;4959804;28;21368;-78
2022/08/13 10:43:43;;;;;;;8.00;7.30;;;28.20;1.00;;;;;;4965864;28;20441;-78
2022/08/13 10:46:16;;;;;;;8.30;6.60;;;27.70;1.00;;;;;;4964864;28;20492;-78
2022/08/13 10:48:46;;;;;;;7.40;6.90;;;27.70;1.00;;;;;;4962469;28;20460;-79
2022/08/13 10:51:13;;;;;;;9.43;7.07;;;27.60;1.00;;;;;;4965721;28;20468;-80
2022/08/13 10:53:58;;;;;;;7.10;6.40;;;27.60;1.00;;;;;;4957674;28;20473;-79
2022/08/13 10:56:27;;;;;;;9.27;7.03;;;27.60;1.00;;;;;;4961060;28;20459;-80
2022/08/13 10:58:57;;;;;;;7.80;6.80;;;27.50;1.00;;;;;;4964651;28;20465;-81
2022/08/13 11:01:26;;;;;;;6.43;5.83;;;27.50;1.00;;;;;;4959708;28;20550;-80
2022/08/13 11:03:56;;;;;;;7.87;7.10;;;27.50;1.00;;;;;;4966287;28;20520;-80
2022/08/13 11:06:27;;;;;;;8.13;7.43;;;27.60;1.00;;;;;;4955607;28;20469;-80
2022/08/13 11:08:57;;;;;;;7.87;7.30;;;27.40;1.00;;;;;;4963349;28;20544;-80
2022/08/13 11:11:27;;;;;;;9.53;7.53;;;27.30;1.00;;;;;;4963172;28;20548;-77
2022/08/13 11:13:55;;;;;;;8.50;7.70;;;27.20;1.00;;;;;;4961445;28;20553;-77
2022/08/13 11:19:14;;;;;;;8.97;8.37;;;27.10;1.00;;;;;;4966259;28;20424;-80
2022/08/13 11:21:46;;;;;;;9.10;8.40;;;27.20;1.00;;;;;;4964084;28;20449;-78
2022/08/13 11:24:15;;;;;;;9.20;8.50;;;27.30;1.00;;;;;;4960144;28;20579;-78
2022/08/13 11:26:42;;;;;;;10.33;8.20;;;27.50;1.00;;;;;;4957432;28;20464;-78
2022/08/13 11:29:15;;;;;;;8.63;7.90;;;27.70;1.00;;;;;;4964349;28;20545;-77
2022/08/13 11:31:42;;;;;;;9.30;8.60;;;28.00;1.00;;;;;;4948111;28;20984;-79
2022/08/13 11:34:09;;;;;;;9.87;9.00;;;28.20;1.00;;;;;;4976853;28;20453;-78
2022/08/13 11:36:36;;;;;;;8.40;7.80;;;28.30;1.00;;;;;;4968715;28;20547;-79
2022/08/13 11:39:07;;;;;;;9.43;8.43;;;28.30;1.00;;;;;;4969752;28;20432;-79
2022/08/13 11:41:35;;;;;;;9.10;8.40;;;28.10;1.00;;;;;;4962186;28;20468;-82
2022/08/13 11:44:06;;;;;;;8.83;8.17;;;28.00;1.00;;;;;;4966391;28;20505;-80
2022/08/13 11:46:32;;;;;;;9.10;8.40;;;27.80;1.00;;;;;;4960959;28;20463;-82
2022/08/13 11:49:02;;;;;;;9.37;8.40;;;27.70;1.00;;;;;;4964884;28;20494;-81
2022/08/13 11:51:35;;;;;;;11.77;8.30;;;27.60;1.00;;;;;;4960623;28;20469;-77
2022/08/13 11:54:05;;;;;;;8.20;7.60;;;27.50;1.00;;;;;;4965257;28;20560;-80
2022/08/13 11:56:37;;;;;;;18.87;10.13;;;27.50;1.00;;;;;;4938917;28;20425;-81
2022/08/13 11:59:18;;;;;;;8.77;8.13;;;27.40;1.00;;;;;;4956709;28;20495;-81
2022/08/13 12:01:46;;;;;;;9.13;8.43;;;27.40;1.00;;;;;;4941403;28;20469;-78
2022/08/13 12:04:15;;;;;;;8.93;8.10;;;27.30;1.00;;;;;;4970012;28;20520;-79
2022/08/13 12:06:44;;;;;;;9.50;7.20;;;27.30;1.00;;;;;;4947780;28;20844;-78
2022/08/13 12:09:16;;;;;;;9.17;8.20;;;27.50;1.00;;;;;;4953782;28;20507;-77
2022/08/13 12:11:44;;;;;;;8.27;7.17;;;27.50;1.00;;;;;;4951134;28;20551;-77
2022/08/13 12:14:15;;;;;;;8.70;7.90;;;27.50;1.00;;;;;;4971888;28;20483;-78
2022/08/13 12:16:42;;;;;;;8.27;7.53;;;27.50;1.00;;;;;;4915457;28;20468;-79
2022/08/13 12:19:14;;;;;;;8.43;7.70;;;27.50;1.00;;;;;;4942509;28;20536;-78
2022/08/13 12:21:41;;;;;;;7.67;6.97;;;27.60;1.00;;;;;;4921182;28;20502;-79
2022/08/13 12:24:08;;;;;;;8.63;7.80;;;27.80;1.00;;;;;;4937259;28;20500;-80
2022/08/13 12:26:37;;;;;;;8.10;7.40;;;27.90;1.00;;;;;;4924721;28;20497;-81
2022/08/13 12:29:15;;;;;;;8.23;7.20;;;28.00;1.00;;;;;;4939417;28;20464;-78
2022/08/13 12:31:45;;;;;;;7.70;6.90;;;28.00;1.00;;;;;;4935367;28;20501;-78
2022/08/13 12:34:17;;;;;;;7.83;7.03;;;28.00;1.00;;;;;;4928252;28;20432;-77
2022/08/13 12:36:48;;;;;;;8.47;7.70;;;28.10;1.00;;;;;;4924100;28;20456;-78
2022/08/13 12:39:15;;;;;;;7.80;7.30;;;28.10;1.00;;;;;;4940864;28;20472;-78
2022/08/13 12:41:45;;;;;;;8.77;7.93;;;28.10;1.00;;;;;;4933085;28;22170;-76
2022/08/13 12:44:18;;;;;;;9.40;8.23;;;28.30;1.00;;;;;;4944820;28;20449;-77
2022/08/13 12:46:46;;;;;;;12.07;7.87;;;28.50;1.00;;;;;;4936021;28;20552;-78
2022/08/13 12:49:15;;;;;;;7.97;7.47;;;28.80;1.00;;;;;;4939477;28;20488;-81
2022/08/13 12:51:43;;;;;;;6.20;5.70;;;29.10;1.00;;;;;;4939222;28;20482;-78
2022/08/13 12:54:16;;;;;;;7.17;6.33;;;29.20;1.00;;;;;;4942864;28;20509;-78
2022/08/13 12:56:45;;;;;;;5.50;4.97;;;29.30;1.00;;;;;;4934721;28;20457;-81
2022/08/13 12:59:19;;;;;;;5.70;5.30;;;29.20;1.00;;;;;;4950305;28;20549;-78
2022/08/13 13:01:52;;;;;;;7.17;5.90;;;29.20;1.00;;;;;;4944470;28;20513;-81
2022/08/13 13:04:22;;;;;;;5.57;5.17;;;29.40;1.00;;;;;;4933730;28;20552;-78
2022/08/13 13:06:50;;;;;;;5.40;5.00;;;29.90;1.00;;;;;;4940090;28;20468;-80
2022/08/13 13:09:17;;;;;;;5.77;5.37;;;30.10;1.00;;;;;;4941685;28;20534;-79
2022/08/13 13:11:44;;;;;;;5.00;4.70;;;29.90;1.00;;;;;;4941468;28;20466;-82
2022/08/13 13:14:16;;;;;;;5.83;5.13;;;29.70;1.00;;;;;;4940795;28;20476;-81
2022/08/13 13:16:44;;;;;;;7.80;5.60;;;29.40;1.00;;;;;;4952514;28;22410;-81
2022/08/13 13:19:15;;;;;;;5.20;4.70;;;29.30;1.00;;;;;;4964665;28;20431;-81
2022/08/13 13:21:43;;;;;;;4.93;4.53;;;29.90;1.00;;;;;;4960338;28;20887;-81
2022/08/13 13:24:15;;;;;;;5.20;4.63;;;31.70;1.00;;;;;;4947732;28;20497;-80
2022/08/13 13:26:42;;;;;;;16.63;15.30;;;33.00;1.00;;;;;;4955136;28;20437;-83
2022/08/13 13:29:15;;;;;;;5.37;4.97;;;34.80;1.00;;;;;;4952576;28;20465;-78
2022/08/13 13:31:43;;;;;;;5.23;4.73;;;35.00;1.00;;;;;;4943033;28;20500;-78
2022/08/13 13:34:17;;;;;;;5.10;4.60;;;34.40;1.00;;;;;;4963348;28;20696;-80
2022/08/13 13:36:45;;;;;;;5.97;5.47;;;33.80;1.00;;;;;;4943459;28;20425;-81
2022/08/13 13:39:15;;;;;;;5.27;4.97;;;33.40;1.00;;;;;;4943042;28;20428;-79
2022/08/13 13:41:42;;;;;;;6.10;5.53;;;32.80;1.00;;;;;;4958654;28;20507;-78